sensor_id;sensor_type;location;lat;lon;timestamp;P1;durP1;ratioP1;P2;durP2;ratioP2
3177;SDS011;38141;42.666;23.344;2024-03-08T00:02:34;13.13;;;8.23;;
3177;SDS011;38141;42.666;23.344;2024-03-08T00:05:03;14.10;;;8.27;;
3177;SDS011;38141;42.666;23.344;2024-03-08T00:07:31;13.13;;;7.67;;
3177;SDS011;38141;42.666;23.344;2024-03-08T00:09:58;14.30;;;8.53;;
3177;SDS011;38141;42.666;23.344;2024-03-08T00:12:26;13.90;;;7.80;;
3177;SDS011;38141;42.666;23.344;2024-03-08T00:14:53;14.30;;;7.80;;
3177;SDS011;38141;42.666;23.344;2024-03-08T00:17:20;14.40;;;8.13;;
3177;SDS011;38141;42.666;23.344;2024-03-08T00:19:48;12.40;;;6.93;;
3177;SDS011;38141;42.666;23.344;2024-03-08T00:22:16;10.30;;;5.90;;
3177;SDS011;38141;42.666;23.344;2024-03-08T00:24:43;8.90;;;6.03;;
3177;SDS011;38141;42.666;23.344;2024-03-08T00:27:10;11.10;;;6.90;;
3177;SDS011;38141;42.666;23.344;2024-03-08T00:29:39;8.63;;;5.53;;
3177;SDS011;38141;42.666;23.344;2024-03-08T00:32:06;9.80;;;5.23;;
3177;SDS011;38141;42.666;23.344;2024-03-08T00:34:35;7.80;;;4.70;;
3177;SDS011;38141;42.666;23.344;2024-03-08T00:37:03;7.93;;;4.70;;
3177;SDS011;38141;42.666;23.344;2024-03-08T00:39:30;6.70;;;4.67;;
3177;SDS011;38141;42.666;23.344;2024-03-08T00:41:57;9.77;;;5.53;;
3177;SDS011;38141;42.666;23.344;2024-03-08T00:44:26;5.37;;;3.77;;
3177;SDS011;38141;42.666;23.344;2024-03-08T00:46:54;6.40;;;4.50;;
3177;SDS011;38141;42.666;23.344;2024-03-08T00:49:21;8.67;;;5.20;;
3177;SDS011;38141;42.666;23.344;2024-03-08T00:51:48;9.97;;;5.83;;
3177;SDS011;38141;42.666;23.344;2024-03-08T00:54:15;6.70;;;4.50;;
3177;SDS011;38141;42.666;23.344;2024-03-08T00:56:42;8.17;;;5.00;;
3177;SDS011;38141;42.666;23.344;2024-03-08T00:59:11;5.73;;;4.27;;
3177;SDS011;38141;42.666;23.344;2024-03-08T01:01:39;3.47;;;2.67;;
3177;SDS011;38141;42.666;23.344;2024-03-08T01:04:08;4.90;;;2.83;;
3177;SDS011;38141;42.666;23.344;2024-03-08T01:06:35;4.27;;;2.87;;
3177;SDS011;38141;42.666;23.344;2024-03-08T01:09:02;3.90;;;2.67;;
3177;SDS011;38141;42.666;23.344;2024-03-08T01:14:19;3.80;;;2.70;;
3177;SDS011;38141;42.666;23.344;2024-03-08T01:16:47;3.37;;;2.40;;
3177;SDS011;38141;42.666;23.344;2024-03-08T01:19:16;3.30;;;2.57;;
3177;SDS011;38141;42.666;23.344;2024-03-08T01:21:43;2.63;;;2.10;;
3177;SDS011;38141;42.666;23.344;2024-03-08T01:24:10;2.87;;;2.20;;
3177;SDS011;38141;42.666;23.344;2024-03-08T01:26:37;3.40;;;2.30;;
3177;SDS011;38141;42.666;23.344;2024-03-08T01:29:04;3.83;;;2.43;;
3177;SDS011;38141;42.666;23.344;2024-03-08T01:31:31;3.30;;;2.37;;
3177;SDS011;38141;42.666;23.344;2024-03-08T01:33:59;3.90;;;2.60;;
3177;SDS011;38141;42.666;23.344;2024-03-08T01:36:27;3.50;;;2.40;;
3177;SDS011;38141;42.666;23.344;2024-03-08T01:38:54;3.70;;;3.13;;
3177;SDS011;38141;42.666;23.344;2024-03-08T01:41:22;3.10;;;2.50;;
3177;SDS011;38141;42.666;23.344;2024-03-08T01:43:49;3.90;;;2.50;;
3177;SDS011;38141;42.666;23.344;2024-03-08T01:46:19;3.30;;;2.57;;
3177;SDS011;38141;42.666;23.344;2024-03-08T01:48:47;3.47;;;2.77;;
3177;SDS011;38141;42.666;23.344;2024-03-08T01:51:15;3.83;;;2.80;;
3177;SDS011;38141;42.666;23.344;2024-03-08T01:53:44;3.40;;;2.63;;
3177;SDS011;38141;42.666;23.344;2024-03-08T01:56:13;4.47;;;3.30;;
3177;SDS011;38141;42.666;23.344;2024-03-08T01:58:41;3.33;;;2.80;;
3177;SDS011;38141;42.666;23.344;2024-03-08T02:01:09;3.90;;;2.57;;
3177;SDS011;38141;42.666;23.344;2024-03-08T02:03:37;3.33;;;2.53;;
3177;SDS011;38141;42.666;23.344;2024-03-08T02:06:04;4.50;;;2.97;;
3177;SDS011;38141;42.666;23.344;2024-03-08T02:08:35;3.90;;;2.60;;
3177;SDS011;38141;42.666;23.344;2024-03-08T02:11:03;4.73;;;3.03;;
3177;SDS011;38141;42.666;23.344;2024-03-08T02:13:31;4.27;;;2.80;;
3177;SDS011;38141;42.666;23.344;2024-03-08T02:15:59;3.60;;;2.80;;
3177;SDS011;38141;42.666;23.344;2024-03-08T02:18:27;3.33;;;2.90;;
3177;SDS011;38141;42.666;23.344;2024-03-08T02:20:57;3.67;;;2.77;;
3177;SDS011;38141;42.666;23.344;2024-03-08T02:23:25;3.87;;;3.10;;
3177;SDS011;38141;42.666;23.344;2024-03-08T02:25:53;4.33;;;2.80;;
3177;SDS011;38141;42.666;23.344;2024-03-08T02:28:21;3.00;;;2.70;;
3177;SDS011;38141;42.666;23.344;2024-03-08T02:30:50;3.73;;;2.80;;
3177;SDS011;38141;42.666;23.344;2024-03-08T02:33:20;3.83;;;2.63;;
3177;SDS011;38141;42.666;23.344;2024-03-08T02:35:47;3.10;;;2.57;;
3177;SDS011;38141;42.666;23.344;2024-03-08T02:38:16;5.80;;;2.53;;
3177;SDS011;38141;42.666;23.344;2024-03-08T02:40:45;3.43;;;2.60;;
3177;SDS011;38141;42.666;23.344;2024-03-08T02:43:13;3.87;;;3.07;;
3177;SDS011;38141;42.666;23.344;2024-03-08T02:45:41;4.03;;;3.13;;
3177;SDS011;38141;42.666;23.344;2024-03-08T02:48:09;4.03;;;3.20;;
3177;SDS011;38141;42.666;23.344;2024-03-08T02:50:36;3.80;;;3.13;;
3177;SDS011;38141;42.666;23.344;2024-03-08T02:53:04;3.10;;;2.57;;
3177;SDS011;38141;42.666;23.344;2024-03-08T02:55:33;3.60;;;2.83;;
3177;SDS011;38141;42.666;23.344;2024-03-08T02:58:01;4.63;;;2.87;;
3177;SDS011;38141;42.666;23.344;2024-03-08T03:00:28;3.67;;;2.63;;
3177;SDS011;38141;42.666;23.344;2024-03-08T03:02:56;2.87;;;2.57;;
3177;SDS011;38141;42.666;23.344;2024-03-08T03:05:23;6.93;;;2.80;;
3177;SDS011;38141;42.666;23.344;2024-03-08T03:07:51;2.60;;;2.20;;
3177;SDS011;38141;42.666;23.344;2024-03-08T03:10:18;2.70;;;2.03;;
3177;SDS011;38141;42.666;23.344;2024-03-08T03:12:48;2.40;;;2.20;;
3177;SDS011;38141;42.666;23.344;2024-03-08T03:15:15;2.07;;;1.60;;
3177;SDS011;38141;42.666;23.344;2024-03-08T03:17:45;3.70;;;1.70;;
3177;SDS011;38141;42.666;23.344;2024-03-08T03:20:13;2.50;;;1.80;;
3177;SDS011;38141;42.666;23.344;2024-03-08T03:22:47;2.13;;;1.80;;
3177;SDS011;38141;42.666;23.344;2024-03-08T03:25:17;2.00;;;1.70;;
3177;SDS011;38141;42.666;23.344;2024-03-08T03:27:50;1.87;;;1.67;;
3177;SDS011;38141;42.666;23.344;2024-03-08T03:30:17;2.00;;;1.80;;
3177;SDS011;38141;42.666;23.344;2024-03-08T03:32:47;3.23;;;2.17;;
3177;SDS011;38141;42.666;23.344;2024-03-08T03:35:16;2.30;;;1.90;;
3177;SDS011;38141;42.666;23.344;2024-03-08T03:37:43;2.63;;;2.00;;
3177;SDS011;38141;42.666;23.344;2024-03-08T03:40:16;2.13;;;1.90;;
3177;SDS011;38141;42.666;23.344;2024-03-08T03:42:45;3.03;;;2.30;;
3177;SDS011;38141;42.666;23.344;2024-03-08T03:45:13;3.30;;;2.20;;
3177;SDS011;38141;42.666;23.344;2024-03-08T03:47:45;2.30;;;2.10;;
3177;SDS011;38141;42.666;23.344;2024-03-08T03:50:12;2.60;;;2.17;;
3177;SDS011;38141;42.666;23.344;2024-03-08T03:52:39;2.20;;;2.00;;
3177;SDS011;38141;42.666;23.344;2024-03-08T03:55:07;1.97;;;1.77;;
3177;SDS011;38141;42.666;23.344;2024-03-08T03:57:37;4.10;;;1.80;;
3177;SDS011;38141;42.666;23.344;2024-03-08T04:00:05;3.80;;;2.10;;
3177;SDS011;38141;42.666;23.344;2024-03-08T04:02:36;2.90;;;2.10;;
3177;SDS011;38141;42.666;23.344;2024-03-08T04:05:04;3.00;;;2.17;;
3177;SDS011;38141;42.666;23.344;2024-03-08T04:07:32;3.70;;;2.13;;
3177;SDS011;38141;42.666;23.344;2024-03-08T04:09:58;2.83;;;2.00;;
3177;SDS011;38141;42.666;23.344;2024-03-08T04:12:25;1.93;;;1.73;;
3177;SDS011;38141;42.666;23.344;2024-03-08T04:14:53;2.07;;;1.87;;
3177;SDS011;38141;42.666;23.344;2024-03-08T04:17:20;2.27;;;1.80;;
3177;SDS011;38141;42.666;23.344;2024-03-08T04:19:50;2.77;;;2.13;;
3177;SDS011;38141;42.666;23.344;2024-03-08T04:22:17;2.37;;;1.87;;
3177;SDS011;38141;42.666;23.344;2024-03-08T04:24:44;3.00;;;2.00;;
3177;SDS011;38141;42.666;23.344;2024-03-08T04:27:12;2.17;;;1.97;;
3177;SDS011;38141;42.666;23.344;2024-03-08T04:29:39;2.20;;;1.80;;
3177;SDS011;38141;42.666;23.344;2024-03-08T04:32:07;2.13;;;1.93;;
3177;SDS011;38141;42.666;23.344;2024-03-08T04:34:34;2.50;;;2.27;;
3177;SDS011;38141;42.666;23.344;2024-03-08T04:37:03;2.90;;;2.30;;
3177;SDS011;38141;42.666;23.344;2024-03-08T04:39:30;2.63;;;2.00;;
3177;SDS011;38141;42.666;23.344;2024-03-08T04:41:59;2.50;;;2.00;;
3177;SDS011;38141;42.666;23.344;2024-03-08T04:44:29;2.67;;;1.83;;
3177;SDS011;38141;42.666;23.344;2024-03-08T04:46:57;3.40;;;2.20;;
3177;SDS011;38141;42.666;23.344;2024-03-08T04:49:25;2.90;;;2.37;;
3177;SDS011;38141;42.666;23.344;2024-03-08T04:51:53;3.27;;;2.40;;
3177;SDS011;38141;42.666;23.344;2024-03-08T04:54:21;3.60;;;2.67;;
3177;SDS011;38141;42.666;23.344;2024-03-08T04:56:49;3.10;;;2.63;;
3177;SDS011;38141;42.666;23.344;2024-03-08T04:59:16;2.93;;;2.53;;
3177;SDS011;38141;42.666;23.344;2024-03-08T05:01:43;4.17;;;2.80;;
3177;SDS011;38141;42.666;23.344;2024-03-08T05:04:10;2.80;;;2.50;;
3177;SDS011;38141;42.666;23.344;2024-03-08T05:06:37;4.53;;;2.70;;
3177;SDS011;38141;42.666;23.344;2024-03-08T05:09:04;3.80;;;2.87;;
3177;SDS011;38141;42.666;23.344;2024-03-08T05:12:05;4.00;;;2.90;;
3177;SDS011;38141;42.666;23.344;2024-03-08T05:14:33;2.97;;;2.67;;
3177;SDS011;38141;42.666;23.344;2024-03-08T05:17:00;4.40;;;3.40;;
3177;SDS011;38141;42.666;23.344;2024-03-08T05:19:27;4.50;;;3.67;;
3177;SDS011;38141;42.666;23.344;2024-03-08T05:21:55;4.47;;;3.40;;
3177;SDS011;38141;42.666;23.344;2024-03-08T05:24:22;5.00;;;3.70;;
3177;SDS011;38141;42.666;23.344;2024-03-08T05:26:49;4.43;;;3.23;;
3177;SDS011;38141;42.666;23.344;2024-03-08T05:29:18;4.10;;;3.43;;
3177;SDS011;38141;42.666;23.344;2024-03-08T05:31:46;3.70;;;3.30;;
3177;SDS011;38141;42.666;23.344;2024-03-08T05:34:14;5.83;;;3.90;;
3177;SDS011;38141;42.666;23.344;2024-03-08T05:36:41;4.60;;;3.30;;
3177;SDS011;38141;42.666;23.344;2024-03-08T05:39:09;5.57;;;3.23;;
3177;SDS011;38141;42.666;23.344;2024-03-08T05:41:37;4.67;;;3.80;;
3177;SDS011;38141;42.666;23.344;2024-03-08T05:44:04;4.03;;;3.50;;
3177;SDS011;38141;42.666;23.344;2024-03-08T05:46:32;4.13;;;3.73;;
3177;SDS011;38141;42.666;23.344;2024-03-08T05:49:00;5.37;;;4.27;;
3177;SDS011;38141;42.666;23.344;2024-03-08T05:51:30;5.07;;;3.87;;
3177;SDS011;38141;42.666;23.344;2024-03-08T05:53:59;6.40;;;4.63;;
3177;SDS011;38141;42.666;23.344;2024-03-08T05:56:28;7.63;;;5.47;;
3177;SDS011;38141;42.666;23.344;2024-03-08T05:58:55;9.20;;;5.57;;
3177;SDS011;38141;42.666;23.344;2024-03-08T06:01:23;12.93;;;7.90;;
3177;SDS011;38141;42.666;23.344;2024-03-08T06:03:51;10.03;;;6.90;;
3177;SDS011;38141;42.666;23.344;2024-03-08T06:06:20;10.03;;;6.90;;
3177;SDS011;38141;42.666;23.344;2024-03-08T06:08:48;12.30;;;6.83;;
3177;SDS011;38141;42.666;23.344;2024-03-08T06:11:15;9.20;;;5.83;;
3177;SDS011;38141;42.666;23.344;2024-03-08T06:13:42;14.40;;;8.63;;
3177;SDS011;38141;42.666;23.344;2024-03-08T06:16:09;12.20;;;6.37;;
3177;SDS011;38141;42.666;23.344;2024-03-08T06:18:36;13.40;;;7.90;;
3177;SDS011;38141;42.666;23.344;2024-03-08T06:21:05;12.93;;;7.63;;
3177;SDS011;38141;42.666;23.344;2024-03-08T06:23:34;14.83;;;8.77;;
3177;SDS011;38141;42.666;23.344;2024-03-08T06:26:03;11.67;;;7.33;;
3177;SDS011;38141;42.666;23.344;2024-03-08T06:28:31;12.87;;;7.93;;
3177;SDS011;38141;42.666;23.344;2024-03-08T06:30:58;13.27;;;8.10;;
3177;SDS011;38141;42.666;23.344;2024-03-08T06:33:25;14.77;;;8.10;;
3177;SDS011;38141;42.666;23.344;2024-03-08T06:35:52;12.93;;;7.80;;
3177;SDS011;38141;42.666;23.344;2024-03-08T06:38:23;14.10;;;8.00;;
3177;SDS011;38141;42.666;23.344;2024-03-08T06:40:50;12.60;;;7.50;;
3177;SDS011;38141;42.666;23.344;2024-03-08T06:43:17;14.77;;;8.23;;
3177;SDS011;38141;42.666;23.344;2024-03-08T06:45:45;12.37;;;8.23;;
3177;SDS011;38141;42.666;23.344;2024-03-08T06:48:13;12.30;;;7.40;;
3177;SDS011;38141;42.666;23.344;2024-03-08T06:50:42;15.17;;;8.53;;
3177;SDS011;38141;42.666;23.344;2024-03-08T06:53:09;11.90;;;7.40;;
3177;SDS011;38141;42.666;23.344;2024-03-08T06:55:38;10.37;;;6.53;;
3177;SDS011;38141;42.666;23.344;2024-03-08T06:58:05;8.37;;;5.30;;
3177;SDS011;38141;42.666;23.344;2024-03-08T07:00:32;8.93;;;5.13;;
3177;SDS011;38141;42.666;23.344;2024-03-08T07:02:59;7.43;;;5.10;;
3177;SDS011;38141;42.666;23.344;2024-03-08T07:05:26;8.27;;;5.50;;
3177;SDS011;38141;42.666;23.344;2024-03-08T07:07:54;7.57;;;4.90;;
3177;SDS011;38141;42.666;23.344;2024-03-08T07:10:21;7.77;;;5.77;;
3177;SDS011;38141;42.666;23.344;2024-03-08T07:12:51;17.53;;;11.37;;
3177;SDS011;38141;42.666;23.344;2024-03-08T07:15:18;10.30;;;6.43;;
3177;SDS011;38141;42.666;23.344;2024-03-08T07:17:46;23.27;;;12.50;;
3177;SDS011;38141;42.666;23.344;2024-03-08T07:20:13;13.37;;;8.80;;
3177;SDS011;38141;42.666;23.344;2024-03-08T07:22:44;8.80;;;6.20;;
3177;SDS011;38141;42.666;23.344;2024-03-08T07:25:12;9.60;;;6.40;;
3177;SDS011;38141;42.666;23.344;2024-03-08T07:27:51;8.87;;;6.23;;
3177;SDS011;38141;42.666;23.344;2024-03-08T07:30:18;8.90;;;5.80;;
3177;SDS011;38141;42.666;23.344;2024-03-08T07:33:02;9.70;;;5.90;;
3177;SDS011;38141;42.666;23.344;2024-03-08T07:35:29;12.10;;;7.37;;
3177;SDS011;38141;42.666;23.344;2024-03-08T07:37:57;11.70;;;6.80;;
3177;SDS011;38141;42.666;23.344;2024-03-08T07:40:25;12.03;;;7.30;;
3177;SDS011;38141;42.666;23.344;2024-03-08T07:42:53;17.83;;;10.73;;
3177;SDS011;38141;42.666;23.344;2024-03-08T07:45:20;10.30;;;6.43;;
3177;SDS011;38141;42.666;23.344;2024-03-08T07:47:48;8.50;;;5.57;;
3177;SDS011;38141;42.666;23.344;2024-03-08T07:50:16;7.67;;;5.60;;
3177;SDS011;38141;42.666;23.344;2024-03-08T07:52:44;10.20;;;5.80;;
3177;SDS011;38141;42.666;23.344;2024-03-08T07:55:11;7.90;;;5.87;;
3177;SDS011;38141;42.666;23.344;2024-03-08T07:57:38;7.30;;;5.50;;
3177;SDS011;38141;42.666;23.344;2024-03-08T08:00:07;11.33;;;6.50;;
3177;SDS011;38141;42.666;23.344;2024-03-08T08:02:36;9.57;;;6.97;;
3177;SDS011;38141;42.666;23.344;2024-03-08T08:05:03;11.70;;;5.90;;
3177;SDS011;38141;42.666;23.344;2024-03-08T08:07:30;13.07;;;7.00;;
3177;SDS011;38141;42.666;23.344;2024-03-08T08:09:57;10.73;;;5.93;;
3177;SDS011;38141;42.666;23.344;2024-03-08T08:12:24;8.67;;;5.33;;
3177;SDS011;38141;42.666;23.344;2024-03-08T08:14:53;10.10;;;6.77;;
3177;SDS011;38141;42.666;23.344;2024-03-08T08:17:22;29.50;;;12.10;;
3177;SDS011;38141;42.666;23.344;2024-03-08T08:19:48;20.63;;;11.90;;
3177;SDS011;38141;42.666;23.344;2024-03-08T08:22:15;14.40;;;9.07;;
3177;SDS011;38141;42.666;23.344;2024-03-08T08:24:43;13.03;;;9.47;;
3177;SDS011;38141;42.666;23.344;2024-03-08T08:27:10;21.13;;;11.30;;
3177;SDS011;38141;42.666;23.344;2024-03-08T08:29:37;25.00;;;13.83;;
3177;SDS011;38141;42.666;23.344;2024-03-08T08:32:05;10.67;;;7.70;;
3177;SDS011;38141;42.666;23.344;2024-03-08T08:34:33;10.47;;;7.10;;
3177;SDS011;38141;42.666;23.344;2024-03-08T08:37:00;14.40;;;6.57;;
3177;SDS011;38141;42.666;23.344;2024-03-08T08:39:27;15.67;;;8.60;;
3177;SDS011;38141;42.666;23.344;2024-03-08T08:41:54;11.80;;;5.73;;
3177;SDS011;38141;42.666;23.344;2024-03-08T08:44:21;8.27;;;4.97;;
3177;SDS011;38141;42.666;23.344;2024-03-08T08:46:48;11.17;;;7.47;;
3177;SDS011;38141;42.666;23.344;2024-03-08T08:49:16;15.77;;;5.83;;
3177;SDS011;38141;42.666;23.344;2024-03-08T08:51:49;10.13;;;5.07;;
3177;SDS011;38141;42.666;23.344;2024-03-08T08:54:16;10.50;;;5.43;;
3177;SDS011;38141;42.666;23.344;2024-03-08T08:56:43;10.50;;;5.43;;
3177;SDS011;38141;42.666;23.344;2024-03-08T08:59:10;9.93;;;6.03;;
3177;SDS011;38141;42.666;23.344;2024-03-08T09:01:39;9.27;;;5.53;;
3177;SDS011;38141;42.666;23.344;2024-03-08T09:04:06;10.27;;;6.37;;
3177;SDS011;38141;42.666;23.344;2024-03-08T09:06:33;9.83;;;6.73;;
3177;SDS011;38141;42.666;23.344;2024-03-08T09:09:02;8.87;;;6.70;;
3177;SDS011;38141;42.666;23.344;2024-03-08T09:11:30;11.93;;;6.13;;
3177;SDS011;38141;42.666;23.344;2024-03-08T09:13:57;11.00;;;6.77;;
3177;SDS011;38141;42.666;23.344;2024-03-08T09:16:24;9.03;;;5.13;;
3177;SDS011;38141;42.666;23.344;2024-03-08T09:18:51;8.57;;;5.30;;
3177;SDS011;38141;42.666;23.344;2024-03-08T09:21:18;8.63;;;4.83;;
3177;SDS011;38141;42.666;23.344;2024-03-08T09:23:45;9.07;;;4.03;;
3177;SDS011;38141;42.666;23.344;2024-03-08T09:26:14;5.67;;;4.37;;
3177;SDS011;38141;42.666;23.344;2024-03-08T09:28:42;5.67;;;3.93;;
3177;SDS011;38141;42.666;23.344;2024-03-08T09:31:09;5.27;;;3.63;;
3177;SDS011;38141;42.666;23.344;2024-03-08T09:33:36;8.30;;;3.10;;
3177;SDS011;38141;42.666;23.344;2024-03-08T09:36:04;4.37;;;3.57;;
3177;SDS011;38141;42.666;23.344;2024-03-08T09:38:32;6.60;;;3.80;;
3177;SDS011;38141;42.666;23.344;2024-03-08T09:41:00;11.32;;;3.50;;
3177;SDS011;38141;42.666;23.344;2024-03-08T09:43:30;8.07;;;3.20;;
3177;SDS011;38141;42.666;23.344;2024-03-08T09:45:57;8.00;;;3.60;;
3177;SDS011;38141;42.666;23.344;2024-03-08T09:48:25;4.97;;;3.50;;
3177;SDS011;38141;42.666;23.344;2024-03-08T09:50:54;5.00;;;3.60;;
3177;SDS011;38141;42.666;23.344;2024-03-08T09:53:21;8.00;;;4.10;;
3177;SDS011;38141;42.666;23.344;2024-03-08T09:55:49;5.10;;;3.23;;
3177;SDS011;38141;42.666;23.344;2024-03-08T09:58:17;5.40;;;3.57;;
3177;SDS011;38141;42.666;23.344;2024-03-08T10:01:03;14.00;;;3.60;;
3177;SDS011;38141;42.666;23.344;2024-03-08T10:03:31;4.63;;;3.40;;
3177;SDS011;38141;42.666;23.344;2024-03-08T10:05:58;4.07;;;3.13;;
3177;SDS011;38141;42.666;23.344;2024-03-08T10:08:26;8.07;;;4.87;;
3177;SDS011;38141;42.666;23.344;2024-03-08T10:10:54;6.77;;;4.00;;
3177;SDS011;38141;42.666;23.344;2024-03-08T10:13:23;5.20;;;3.63;;
3177;SDS011;38141;42.666;23.344;2024-03-08T10:15:52;3.47;;;2.97;;
3177;SDS011;38141;42.666;23.344;2024-03-08T10:18:21;4.30;;;2.97;;
3177;SDS011;38141;42.666;23.344;2024-03-08T10:21:01;5.93;;;3.20;;
3177;SDS011;38141;42.666;23.344;2024-03-08T10:23:30;5.50;;;3.60;;
3177;SDS011;38141;42.666;23.344;2024-03-08T10:25:59;8.80;;;4.20;;
3177;SDS011;38141;42.666;23.344;2024-03-08T10:28:36;6.83;;;3.60;;
3177;SDS011;38141;42.666;23.344;2024-03-08T10:31:03;6.73;;;3.57;;
3177;SDS011;38141;42.666;23.344;2024-03-08T10:33:32;5.57;;;3.83;;
3177;SDS011;38141;42.666;23.344;2024-03-08T10:35:59;6.10;;;4.10;;
3177;SDS011;38141;42.666;23.344;2024-03-08T10:38:28;6.20;;;3.43;;
3177;SDS011;38141;42.666;23.344;2024-03-08T10:40:59;4.83;;;3.03;;
3177;SDS011;38141;42.666;23.344;2024-03-08T10:43:28;3.97;;;2.97;;
3177;SDS011;38141;42.666;23.344;2024-03-08T10:46:05;11.93;;;4.17;;
3177;SDS011;38141;42.666;23.344;2024-03-08T10:48:45;6.57;;;4.00;;
3177;SDS011;38141;42.666;23.344;2024-03-08T10:51:16;5.53;;;3.70;;
3177;SDS011;38141;42.666;23.344;2024-03-08T10:53:46;8.00;;;4.77;;
3177;SDS011;38141;42.666;23.344;2024-03-08T10:56:16;3.80;;;3.20;;
3177;SDS011;38141;42.666;23.344;2024-03-08T10:58:43;4.10;;;2.90;;
3177;SDS011;38141;42.666;23.344;2024-03-08T11:01:12;5.57;;;3.23;;
3177;SDS011;38141;42.666;23.344;2024-03-08T11:03:48;12.97;;;4.23;;
3177;SDS011;38141;42.666;23.344;2024-03-08T11:06:18;7.00;;;3.33;;
3177;SDS011;38141;42.666;23.344;2024-03-08T11:08:55;6.83;;;3.50;;
3177;SDS011;38141;42.666;23.344;2024-03-08T11:11:24;6.40;;;3.90;;
3177;SDS011;38141;42.666;23.344;2024-03-08T11:13:55;6.23;;;3.40;;
3177;SDS011;38141;42.666;23.344;2024-03-08T11:16:38;4.30;;;3.10;;
3177;SDS011;38141;42.666;23.344;2024-03-08T11:19:26;3.17;;;2.50;;
3177;SDS011;38141;42.666;23.344;2024-03-08T11:22:00;3.30;;;2.63;;
3177;SDS011;38141;42.666;23.344;2024-03-08T11:24:28;3.30;;;2.77;;
3177;SDS011;38141;42.666;23.344;2024-03-08T11:27:05;2.97;;;2.67;;
3177;SDS011;38141;42.666;23.344;2024-03-08T11:29:32;3.80;;;2.83;;
3177;SDS011;38141;42.666;23.344;2024-03-08T11:32:04;4.50;;;2.60;;
3177;SDS011;38141;42.666;23.344;2024-03-08T11:34:34;2.90;;;2.60;;
3177;SDS011;38141;42.666;23.344;2024-03-08T11:37:03;3.60;;;2.57;;
3177;SDS011;38141;42.666;23.344;2024-03-08T11:39:31;2.63;;;2.30;;
3177;SDS011;38141;42.666;23.344;2024-03-08T11:41:58;3.97;;;2.43;;
3177;SDS011;38141;42.666;23.344;2024-03-08T11:44:26;6.00;;;2.23;;
3177;SDS011;38141;42.666;23.344;2024-03-08T11:46:54;4.83;;;2.80;;
3177;SDS011;38141;42.666;23.344;2024-03-08T11:49:21;10.90;;;6.17;;
3177;SDS011;38141;42.666;23.344;2024-03-08T11:51:52;3.80;;;3.40;;
3177;SDS011;38141;42.666;23.344;2024-03-08T11:54:19;7.33;;;3.53;;
3177;SDS011;38141;42.666;23.344;2024-03-08T11:56:47;2.80;;;2.37;;
3177;SDS011;38141;42.666;23.344;2024-03-08T11:59:14;5.57;;;2.80;;
3177;SDS011;38141;42.666;23.344;2024-03-08T12:01:42;6.97;;;3.50;;
3177;SDS011;38141;42.666;23.344;2024-03-08T12:04:11;9.17;;;2.80;;
3177;SDS011;38141;42.666;23.344;2024-03-08T12:06:39;5.70;;;3.10;;
3177;SDS011;38141;42.666;23.344;2024-03-08T12:09:11;5.90;;;2.80;;
3177;SDS011;38141;42.666;23.344;2024-03-08T12:11:40;2.40;;;2.20;;
3177;SDS011;38141;42.666;23.344;2024-03-08T12:14:08;6.20;;;2.70;;
3177;SDS011;38141;42.666;23.344;2024-03-08T12:16:36;3.67;;;2.60;;
3177;SDS011;38141;42.666;23.344;2024-03-08T12:19:02;3.77;;;2.93;;
3177;SDS011;38141;42.666;23.344;2024-03-08T12:21:31;3.20;;;2.30;;
3177;SDS011;38141;42.666;23.344;2024-03-08T12:24:03;5.10;;;2.77;;
3177;SDS011;38141;42.666;23.344;2024-03-08T12:26:35;2.90;;;2.07;;
3177;SDS011;38141;42.666;23.344;2024-03-08T12:29:16;2.77;;;2.10;;
3177;SDS011;38141;42.666;23.344;2024-03-08T12:31:45;4.00;;;2.47;;
3177;SDS011;38141;42.666;23.344;2024-03-08T12:34:14;3.20;;;2.60;;
3177;SDS011;38141;42.666;23.344;2024-03-08T12:36:47;4.13;;;2.60;;
3177;SDS011;38141;42.666;23.344;2024-03-08T12:39:19;3.13;;;2.37;;
3177;SDS011;38141;42.666;23.344;2024-03-08T12:41:53;2.40;;;2.20;;
3177;SDS011;38141;42.666;23.344;2024-03-08T12:44:24;5.07;;;3.00;;
3177;SDS011;38141;42.666;23.344;2024-03-08T12:46:57;5.87;;;2.33;;
3177;SDS011;38141;42.666;23.344;2024-03-08T12:49:25;3.90;;;2.70;;
3177;SDS011;38141;42.666;23.344;2024-03-08T12:51:52;6.03;;;3.07;;
3177;SDS011;38141;42.666;23.344;2024-03-08T12:54:20;5.20;;;2.73;;
3177;SDS011;38141;42.666;23.344;2024-03-08T12:56:51;3.93;;;2.60;;
3177;SDS011;38141;42.666;23.344;2024-03-08T12:59:20;5.20;;;2.50;;
3177;SDS011;38141;42.666;23.344;2024-03-08T13:01:50;5.47;;;2.83;;
3177;SDS011;38141;42.666;23.344;2024-03-08T13:04:25;3.47;;;2.63;;
3177;SDS011;38141;42.666;23.344;2024-03-08T13:06:52;2.83;;;2.40;;
3177;SDS011;38141;42.666;23.344;2024-03-08T13:09:20;4.10;;;2.60;;
3177;SDS011;38141;42.666;23.344;2024-03-08T13:11:55;3.33;;;2.80;;
3177;SDS011;38141;42.666;23.344;2024-03-08T13:14:24;4.70;;;3.40;;
3177;SDS011;38141;42.666;23.344;2024-03-08T13:16:57;7.80;;;3.90;;
3177;SDS011;38141;42.666;23.344;2024-03-08T13:19:29;3.77;;;2.37;;
3177;SDS011;38141;42.666;23.344;2024-03-08T13:21:56;2.60;;;2.10;;
3177;SDS011;38141;42.666;23.344;2024-03-08T13:24:29;3.27;;;2.80;;
3177;SDS011;38141;42.666;23.344;2024-03-08T13:26:58;3.63;;;2.70;;
3177;SDS011;38141;42.666;23.344;2024-03-08T13:29:25;2.93;;;2.47;;
3177;SDS011;38141;42.666;23.344;2024-03-08T13:31:52;2.77;;;2.40;;
3177;SDS011;38141;42.666;23.344;2024-03-08T13:34:21;4.07;;;2.50;;
3177;SDS011;38141;42.666;23.344;2024-03-08T13:36:54;49.37;;;29.60;;
3177;SDS011;38141;42.666;23.344;2024-03-08T13:39:25;7.43;;;3.33;;
3177;SDS011;38141;42.666;23.344;2024-03-08T13:41:54;3.10;;;2.60;;
3177;SDS011;38141;42.666;23.344;2024-03-08T13:44:25;3.63;;;2.40;;
3177;SDS011;38141;42.666;23.344;2024-03-08T13:46:53;3.77;;;3.13;;
3177;SDS011;38141;42.666;23.344;2024-03-08T13:49:23;2.50;;;2.10;;
3177;SDS011;38141;42.666;23.344;2024-03-08T13:51:51;3.23;;;2.80;;
3177;SDS011;38141;42.666;23.344;2024-03-08T13:54:20;2.73;;;2.27;;
3177;SDS011;38141;42.666;23.344;2024-03-08T13:56:47;5.03;;;3.10;;
3177;SDS011;38141;42.666;23.344;2024-03-08T13:59:16;5.40;;;2.50;;
3177;SDS011;38141;42.666;23.344;2024-03-08T14:01:43;7.13;;;2.90;;
3177;SDS011;38141;42.666;23.344;2024-03-08T14:04:12;3.17;;;2.60;;
3177;SDS011;38141;42.666;23.344;2024-03-08T14:06:39;3.47;;;2.63;;
3177;SDS011;38141;42.666;23.344;2024-03-08T14:09:06;2.30;;;2.10;;
3177;SDS011;38141;42.666;23.344;2024-03-08T14:11:34;2.90;;;2.40;;
3177;SDS011;38141;42.666;23.344;2024-03-08T14:14:02;3.83;;;2.70;;
3177;SDS011;38141;42.666;23.344;2024-03-08T14:16:31;6.73;;;2.47;;
3177;SDS011;38141;42.666;23.344;2024-03-08T14:19:07;6.47;;;2.50;;
3177;SDS011;38141;42.666;23.344;2024-03-08T14:21:35;7.60;;;2.67;;
3177;SDS011;38141;42.666;23.344;2024-03-08T14:24:07;3.53;;;3.13;;
3177;SDS011;38141;42.666;23.344;2024-03-08T14:26:35;9.73;;;3.10;;
3177;SDS011;38141;42.666;23.344;2024-03-08T14:29:03;6.27;;;3.50;;
3177;SDS011;38141;42.666;23.344;2024-03-08T14:31:36;9.20;;;4.20;;
3177;SDS011;38141;42.666;23.344;2024-03-08T14:34:03;5.50;;;2.80;;
3177;SDS011;38141;42.666;23.344;2024-03-08T14:36:32;9.77;;;4.20;;
3177;SDS011;38141;42.666;23.344;2024-03-08T14:39:00;4.60;;;3.03;;
3177;SDS011;38141;42.666;23.344;2024-03-08T14:41:27;3.60;;;2.83;;
3177;SDS011;38141;42.666;23.344;2024-03-08T14:43:55;6.03;;;3.50;;
3177;SDS011;38141;42.666;23.344;2024-03-08T14:46:22;4.70;;;3.20;;
3177;SDS011;38141;42.666;23.344;2024-03-08T14:48:51;6.60;;;3.53;;
3177;SDS011;38141;42.666;23.344;2024-03-08T14:51:18;8.90;;;3.30;;
3177;SDS011;38141;42.666;23.344;2024-03-08T14:53:47;5.43;;;3.00;;
3177;SDS011;38141;42.666;23.344;2024-03-08T14:56:15;4.13;;;3.17;;
3177;SDS011;38141;42.666;23.344;2024-03-08T14:58:42;7.23;;;3.40;;